createdAt,value
2019-04-29T00:56:22.675Z,3.93
2019-04-29T00:58:52.804Z,6.97
2019-04-29T01:01:25.284Z,4.43
2019-04-29T01:03:55.400Z,4.40
2019-04-29T01:06:25.371Z,5.00
2019-04-29T01:08:56.142Z,4.57
2019-04-29T01:11:26.324Z,4.17
2019-04-29T01:13:56.381Z,4.40
2019-04-29T01:16:28.443Z,3.90
2019-04-29T01:18:59.097Z,4.33
2019-04-29T01:21:29.076Z,5.67
2019-04-29T01:23:59.089Z,6.53
2019-04-29T01:26:44.961Z,3.33
2019-04-29T01:29:16.344Z,3.93
2019-04-29T01:31:46.220Z,6.03
2019-04-29T01:34:21.453Z,5.40
2019-04-29T01:36:54.677Z,4.50
2019-04-29T01:39:30.198Z,5.27
2019-04-29T01:42:19.134Z,5.77
2019-04-29T01:44:49.175Z,3.10
2019-04-29T01:47:19.221Z,5.47
2019-04-29T01:49:49.252Z,5.40
2019-04-29T01:52:19.375Z,4.10
2019-04-29T01:54:49.331Z,3.67
2019-04-29T01:57:19.289Z,3.70
2019-04-29T01:59:49.330Z,4.37
2019-04-29T02:02:19.387Z,4.07
2019-04-29T02:04:49.784Z,4.10
2019-04-29T02:07:19.905Z,3.17
2019-04-29T02:10:14.846Z,4.20
2019-04-29T02:12:46.841Z,4.10
2019-04-29T02:15:18.828Z,4.07
2019-04-29T02:17:50.458Z,3.30
2019-04-29T02:20:25.124Z,4.83
2019-04-29T02:23:15.131Z,5.03
2019-04-29T02:28:14.954Z,3.67
2019-04-29T02:30:47.900Z,3.50
2019-04-29T02:33:17.974Z,4.60
2019-04-29T02:35:48.141Z,3.97
2019-04-29T02:38:55.480Z,3.20
2019-04-29T02:41:40.846Z,4.13
2019-04-29T02:44:12.119Z,4.67
2019-04-29T02:46:42.138Z,3.83
2019-04-29T02:49:12.406Z,4.13
2019-04-29T02:51:45.747Z,3.50
2019-04-29T02:54:16.814Z,3.43
2019-04-29T02:56:50.919Z,6.10
2019-04-29T02:59:26.763Z,4.37
2019-04-29T03:02:04.514Z,3.63
2019-04-29T03:04:39.968Z,3.33
2019-04-29T03:07:10.188Z,9.17
2019-04-29T03:09:45.659Z,3.20
2019-04-29T03:12:16.295Z,4.00
2019-04-29T03:14:46.412Z,5.70
2019-04-29T03:17:20.943Z,5.13
2019-04-29T03:20:15.608Z,4.50
2019-04-29T03:22:46.240Z,8.73
2019-04-29T03:25:16.325Z,6.33
2019-04-29T03:27:46.791Z,7.30
2019-04-29T03:30:17.307Z,5.20
2019-04-29T03:32:47.619Z,3.60
2019-04-29T03:35:18.167Z,4.57
2019-04-29T03:37:48.352Z,3.23
2019-04-29T03:40:18.771Z,5.03
2019-04-29T03:42:48.693Z,3.67
2019-04-29T03:45:18.849Z,9.53
2019-04-29T03:47:49.052Z,5.23
2019-04-29T03:50:20.036Z,6.77
2019-04-29T03:52:50.015Z,6.33
2019-04-29T03:55:37.689Z,4.07
2019-04-29T03:57:51.714Z,4.30
2019-04-29T04:00:21.898Z,5.97
2019-04-29T04:03:03.948Z,4.80
2019-04-29T04:05:43.545Z,4.97
2019-04-29T04:08:19.974Z,5.13
2019-04-29T04:10:50.130Z,5.87
2019-04-29T04:13:21.194Z,4.13
2019-04-29T04:15:51.350Z,5.87
2019-04-29T04:18:26.845Z,3.97
2019-04-29T04:20:57.240Z,4.77
2019-04-29T04:23:27.216Z,3.70
2019-04-29T04:25:57.436Z,4.60
2019-04-29T04:28:27.474Z,7.37
2019-04-29T04:30:57.667Z,5.00
2019-04-29T04:33:27.970Z,4.20
2019-04-29T04:35:58.137Z,4.40
2019-04-29T04:38:33.029Z,5.13
2019-04-29T04:41:06.520Z,3.90
2019-04-29T04:43:36.676Z,4.57
2019-04-29T04:46:04.745Z,4.20
2019-04-29T04:48:35.093Z,3.80
2019-04-29T04:51:05.035Z,4.10
2019-04-29T04:53:35.199Z,3.77
2019-04-29T04:56:06.346Z,3.50
2019-04-29T04:58:36.331Z,3.30
2019-04-29T05:01:06.774Z,3.30
2019-04-29T05:03:36.781Z,3.53
2019-04-29T05:06:06.981Z,4.10
2019-04-29T05:08:37.161Z,5.10
2019-04-29T05:11:07.274Z,5.00
2019-04-29T05:13:38.429Z,3.67
2019-04-29T05:16:08.764Z,4.13
2019-04-29T05:18:38.679Z,4.60
2019-04-29T05:21:09.024Z,3.67
2019-04-29T05:23:41.524Z,3.80
2019-04-29T05:26:10.634Z,6.97
2019-04-29T05:28:40.754Z,4.13
2019-04-29T05:31:10.783Z,4.60
2019-04-29T05:33:41.758Z,3.90
2019-04-29T05:36:26.616Z,3.97
2019-04-29T05:39:07.033Z,4.27
2019-04-29T05:41:36.984Z,3.20
2019-04-29T05:44:15.333Z,3.47
2019-04-29T05:46:48.884Z,3.50
2019-04-29T05:49:22.981Z,4.50
2019-04-29T05:52:04.104Z,5.87
2019-04-29T05:54:34.799Z,5.07
2019-04-29T05:57:04.928Z,3.97
2019-04-29T05:59:35.324Z,4.03
2019-04-29T06:02:05.481Z,8.77
2019-04-29T06:04:35.684Z,5.20
2019-04-29T06:07:05.953Z,4.07
2019-04-29T06:09:36.093Z,6.87
2019-04-29T06:12:10.524Z,6.50
2019-04-29T06:14:40.551Z,10.70
2019-04-29T06:17:10.634Z,5.37
2019-04-29T06:19:41.058Z,5.23
2019-04-29T06:22:11.331Z,4.40
2019-04-29T06:24:42.252Z,5.47
2019-04-29T06:27:12.336Z,6.87
2019-04-29T06:29:42.447Z,6.33
2019-04-29T06:32:12.420Z,5.57
2019-04-29T06:34:42.451Z,7.73
2019-04-29T06:37:12.651Z,6.53
2019-04-29T06:39:42.798Z,6.07
2019-04-29T06:42:15.536Z,6.00
2019-04-29T06:44:48.958Z,6.87
2019-04-29T06:47:17.250Z,5.30
2019-04-29T06:49:47.338Z,6.20
2019-04-29T06:52:19.422Z,7.97
2019-04-29T06:54:49.583Z,7.50
2019-04-29T06:57:19.815Z,6.70
2019-04-29T06:59:49.869Z,7.80
2019-04-29T07:02:20.279Z,7.67
2019-04-29T07:04:50.573Z,7.13
2019-04-29T07:07:20.669Z,7.90
2019-04-29T07:09:51.094Z,8.90
2019-04-29T07:12:21.232Z,8.70
2019-04-29T07:14:51.212Z,8.73
2019-04-29T07:17:24.661Z,9.07
2019-04-29T07:19:57.491Z,8.17
2019-04-29T07:22:27.608Z,7.87
2019-04-29T07:24:58.360Z,7.90
2019-04-29T07:27:28.436Z,7.90
2019-04-29T07:32:26.404Z,8.30
2019-04-29T07:34:56.646Z,8.10
2019-04-29T07:37:24.793Z,7.43
2019-04-29T07:39:52.710Z,7.57
2019-04-29T07:42:25.046Z,8.43
2019-04-29T07:45:43.319Z,7.93
2019-04-29T07:48:06.450Z,8.73
2019-04-29T07:50:34.820Z,8.90
2019-04-29T07:53:05.351Z,8.67
2019-04-29T07:55:35.483Z,8.37
2019-04-29T07:58:05.958Z,8.80
2019-04-29T08:00:37.452Z,8.13
2019-04-29T08:03:09.728Z,9.30
2019-04-29T08:05:40.711Z,8.40
2019-04-29T08:08:16.725Z,8.03
2019-04-29T08:10:55.899Z,8.23
2019-04-29T08:13:23.700Z,8.10
2019-04-29T08:15:55.053Z,7.70
2019-04-29T08:18:25.318Z,7.70
2019-04-29T08:20:56.320Z,8.07
2019-04-29T08:23:28.024Z,8.53
2019-04-29T08:26:02.628Z,11.57
2019-04-29T08:28:33.627Z,8.00
2019-04-29T08:31:04.356Z,7.33
2019-04-29T08:33:34.416Z,8.40
2019-04-29T08:36:04.768Z,9.20
2019-04-29T08:38:34.962Z,7.70
2019-04-29T08:41:05.822Z,8.23
2019-04-29T08:43:56.184Z,11.00
2019-04-29T08:46:27.751Z,8.33
2019-04-29T08:49:01.232Z,8.40
2019-04-29T08:51:31.526Z,7.57
2019-04-29T08:54:04.026Z,8.93
2019-04-29T08:56:35.540Z,8.03
2019-04-29T08:59:07.713Z,9.67
2019-04-29T09:01:38.288Z,9.33
2019-04-29T09:04:11.890Z,7.23
2019-04-29T09:06:42.114Z,9.10
2019-04-29T09:09:28.727Z,6.90
2019-04-29T09:13:54.559Z,7.90
2019-04-29T09:14:19.068Z,6.97
2019-04-29T09:16:49.366Z,6.87
2019-04-29T09:19:21.029Z,7.80
2019-04-29T09:21:55.022Z,8.10
2019-04-29T09:24:26.432Z,7.60
2019-04-29T09:27:05.082Z,7.97
2019-04-29T09:29:35.092Z,8.63
2019-04-29T09:32:06.738Z,9.20
2019-04-29T09:34:37.490Z,8.70
2019-04-29T09:37:07.871Z,8.40
2019-04-29T09:39:43.814Z,8.07
2019-04-29T09:42:31.335Z,7.93
2019-04-29T09:45:24.585Z,9.67
2019-04-29T09:47:55.629Z,10.10
2019-04-29T09:50:28.578Z,10.03
2019-04-29T09:52:59.367Z,9.83
2019-04-29T09:55:29.916Z,9.63
2019-04-29T09:58:00.070Z,9.80
2019-04-29T10:00:52.071Z,11.10
2019-04-29T10:03:35.467Z,10.77
2019-04-29T10:06:14.789Z,10.90
2019-04-29T10:08:46.464Z,10.77
2019-04-29T10:11:17.956Z,9.67
2019-04-29T10:13:48.253Z,12.77
2019-04-29T10:16:31.776Z,9.67
2019-04-29T10:19:05.502Z,9.20
2019-04-29T10:21:38.328Z,10.43
2019-04-29T10:24:09.409Z,10.17
2019-04-29T10:26:39.365Z,10.97
2019-04-29T10:29:18.589Z,11.00
2019-04-29T10:31:47.873Z,10.80
2019-04-29T10:34:18.838Z,10.87
2019-04-29T10:36:52.233Z,11.13
2019-04-29T10:39:52.358Z,11.13
2019-04-29T10:42:30.214Z,12.23
2019-04-29T10:45:07.891Z,10.93
2019-04-29T10:47:58.314Z,12.57
2019-04-29T10:50:32.838Z,11.90
2019-04-29T10:53:03.822Z,13.17
2019-04-29T10:55:33.930Z,14.70
2019-04-29T10:58:04.771Z,14.00
2019-04-29T11:01:18.561Z,16.40
2019-04-29T11:03:50.618Z,16.03
2019-04-29T11:06:31.453Z,15.03
2019-04-29T11:09:09.589Z,16.93
2019-04-29T11:11:40.254Z,14.37
2019-04-29T11:14:10.890Z,16.07
2019-04-29T11:16:46.405Z,14.07
2019-04-29T11:19:13.052Z,16.33
2019-04-29T11:21:43.846Z,15.57
2019-04-29T11:24:22.179Z,16.67
2019-04-29T11:27:11.437Z,11.73
2019-04-29T11:29:35.810Z,14.53
2019-04-29T11:32:11.151Z,14.77
2019-04-29T11:35:00.987Z,13.70
2019-04-29T11:37:33.085Z,14.57
2019-04-29T11:40:06.168Z,12.63
2019-04-29T11:42:41.700Z,15.83
2019-04-29T11:45:13.561Z,12.80
2019-04-29T11:47:44.598Z,12.93
2019-04-29T11:50:27.030Z,13.43
2019-04-29T11:52:58.003Z,12.33
2019-04-29T11:55:29.172Z,12.10
2019-04-29T11:58:05.125Z,11.47
2019-04-29T12:01:03.935Z,11.20
2019-04-29T12:03:38.185Z,9.07
2019-04-29T12:06:10.904Z,10.23
2019-04-29T12:08:41.784Z,10.30
2019-04-29T12:11:16.530Z,9.70
2019-04-29T12:14:12.997Z,10.00
2019-04-29T12:16:47.784Z,10.47
2019-04-29T12:19:22.744Z,9.40
2019-04-29T12:21:55.980Z,9.10
2019-04-29T12:24:31.970Z,8.50
2019-04-29T12:27:04.365Z,7.53
2019-04-29T12:29:37.725Z,9.63
2019-04-29T12:32:27.365Z,8.30
2019-04-29T12:35:21.512Z,8.40
2019-04-29T12:38:11.213Z,9.20
2019-04-29T12:40:57.903Z,8.87
2019-04-29T12:43:38.141Z,10.30
2019-04-29T12:46:16.416Z,10.13
2019-04-29T12:48:47.602Z,9.53
2019-04-29T12:51:18.295Z,10.20
2019-04-29T12:53:50.407Z,9.83
2019-04-29T12:56:47.946Z,8.97
2019-04-29T12:59:20.870Z,9.90
2019-04-29T13:02:24.163Z,8.87
2019-04-29T13:05:15.423Z,9.17
2019-04-29T13:08:06.533Z,7.60
2019-04-29T13:10:57.751Z,8.00
2019-04-29T13:13:29.104Z,7.00
2019-04-29T13:16:21.977Z,7.63
2019-04-29T13:19:29.457Z,7.13
2019-04-29T13:21:57.583Z,7.63
2019-04-29T13:24:28.407Z,8.07
2019-04-29T13:27:15.610Z,6.10
2019-04-29T13:29:40.424Z,6.43
2019-04-29T13:32:11.844Z,4.57
2019-04-29T13:34:45.674Z,5.30
2019-04-29T13:37:18.979Z,5.07
2019-04-29T13:39:56.095Z,4.83
2019-04-29T13:42:31.280Z,4.93
2019-04-29T13:45:12.947Z,4.63
2019-04-29T13:48:01.844Z,5.80
2019-04-29T13:50:45.641Z,5.73
2019-04-29T13:53:18.615Z,6.73
2019-04-29T13:55:50.270Z,5.60
2019-04-29T13:58:29.273Z,5.23
2019-04-29T14:01:31.253Z,4.80
2019-04-29T14:04:29.222Z,5.77
2019-04-29T14:06:59.499Z,6.27
2019-04-29T14:09:35.144Z,5.20
2019-04-29T14:12:42.373Z,5.20
2019-04-29T14:14:37.541Z,5.33
2019-04-29T14:17:25.330Z,5.53
2019-04-29T14:19:42.611Z,5.70
2019-04-29T14:22:21.987Z,6.57
2019-04-29T14:24:46.951Z,6.03
2019-04-29T14:27:24.984Z,5.97
2019-04-29T14:29:51.557Z,6.03
2019-04-29T14:32:33.246Z,5.30
2019-04-29T14:35:16.464Z,5.60
2019-04-29T14:37:55.009Z,5.17
2019-04-29T14:40:18.740Z,4.67
2019-04-29T14:43:03.064Z,5.53
2019-04-29T14:45:58.540Z,5.27
2019-04-29T14:48:43.118Z,5.30
2019-04-29T14:51:13.460Z,4.90
2019-04-29T14:53:55.787Z,5.07
2019-04-29T14:56:16.034Z,5.60
2019-04-29T14:58:48.077Z,4.83
2019-04-29T15:01:33.876Z,4.50
2019-04-29T15:04:18.485Z,4.30
2019-04-29T15:06:43.552Z,5.07
2019-04-29T15:09:20.040Z,4.63
2019-04-29T15:11:59.320Z,4.60
2019-04-29T15:14:40.986Z,4.20
2019-04-29T15:17:23.866Z,4.43
2019-04-29T15:20:18.288Z,3.97
2019-04-29T15:22:50.789Z,4.33
2019-04-29T15:25:23.732Z,4.67
2019-04-29T15:27:54.790Z,4.17
2019-04-29T15:30:31.719Z,4.27
2019-04-29T15:33:05.098Z,3.50
2019-04-29T15:35:35.642Z,3.80
2019-04-29T15:38:05.920Z,4.50
2019-04-29T15:40:42.820Z,4.03
2019-04-29T15:43:09.385Z,4.23
2019-04-29T15:45:41.187Z,4.27
2019-04-29T15:48:11.471Z,3.80
2019-04-29T15:50:42.521Z,4.20
2019-04-29T15:53:12.815Z,4.20
2019-04-29T15:55:43.327Z,4.17
2019-04-29T15:58:15.428Z,4.50
2019-04-29T16:00:46.195Z,4.20
2019-04-29T16:03:18.307Z,3.93
2019-04-29T16:06:21.829Z,3.77
2019-04-29T16:09:11.089Z,3.93
2019-04-29T16:12:16.529Z,4.63
2019-04-29T16:14:49.195Z,3.87
2019-04-29T16:17:20.755Z,4.30
2019-04-29T16:19:52.111Z,3.87
2019-04-29T16:22:22.681Z,3.73
2019-04-29T16:24:59.191Z,3.90
2019-04-29T16:27:25.361Z,4.17
2019-04-29T16:29:58.678Z,4.00
2019-04-29T16:32:37.928Z,4.57
2019-04-29T16:35:08.564Z,3.87
2019-04-29T16:37:39.086Z,4.47
2019-04-29T16:40:09.754Z,3.93
2019-04-29T16:42:58.364Z,3.90
2019-04-29T16:45:55.400Z,4.33
2019-04-29T16:48:27.334Z,4.10
2019-04-29T16:50:57.515Z,5.30
2019-04-29T16:53:28.049Z,4.30
2019-04-29T16:56:01.113Z,4.73
2019-04-29T16:58:31.353Z,5.10
2019-04-29T17:01:02.099Z,4.70
2019-04-29T17:03:32.724Z,5.10
2019-04-29T17:06:03.764Z,5.83
2019-04-29T17:09:02.953Z,5.73
2019-04-29T17:11:27.745Z,5.33
2019-04-29T17:14:03.545Z,5.50
2019-04-29T17:16:32.424Z,5.47
2019-04-29T17:19:19.083Z,5.73
2019-04-29T17:21:50.401Z,6.00
2019-04-29T17:24:20.409Z,6.37
2019-04-29T17:27:01.426Z,6.63
2019-04-29T17:29:49.659Z,7.40
2019-04-29T17:32:44.649Z,7.33
2019-04-29T17:35:21.541Z,8.07
2019-04-29T17:37:50.130Z,7.40
2019-04-29T17:40:21.386Z,7.03
2019-04-29T17:43:00.835Z,7.87
2019-04-29T17:45:39.824Z,8.03
2019-04-29T17:48:23.186Z,7.13
2019-04-29T17:51:00.169Z,8.00
2019-04-29T17:53:45.933Z,9.93
2019-04-29T17:56:26.992Z,7.93
2019-04-29T17:59:02.882Z,9.10
2019-04-29T18:01:51.172Z,10.07
2019-04-29T18:04:49.667Z,9.23
2019-04-29T18:07:35.128Z,10.10
2019-04-29T18:10:29.475Z,12.30
2019-04-29T18:13:04.249Z,11.03
2019-04-29T18:15:51.714Z,10.50
2019-04-29T18:18:17.007Z,11.33
2019-04-29T18:21:19.478Z,11.63
2019-04-29T18:24:05.044Z,11.23
2019-04-29T18:26:44.344Z,11.20
2019-04-29T18:29:16.198Z,11.07
2019-04-29T18:31:47.817Z,12.47
2019-04-29T18:34:18.423Z,11.80
2019-04-29T18:36:48.693Z,11.27
2019-04-29T18:39:24.987Z,10.87
2019-04-29T18:41:58.739Z,10.97
2019-04-29T18:44:27.915Z,11.73
2019-04-29T18:46:57.967Z,11.37
2019-04-29T18:49:28.018Z,11.47
2019-04-29T18:52:02.159Z,11.20
2019-04-29T18:54:31.582Z,12.97
2019-04-29T18:57:01.770Z,11.50
2019-04-29T18:59:34.470Z,10.43
2019-04-29T19:02:09.329Z,11.47
2019-04-29T19:05:05.135Z,12.10
2019-04-29T19:07:37.216Z,11.47
2019-04-29T19:10:14.151Z,9.97
2019-04-29T19:12:40.467Z,10.87
2019-04-29T19:15:11.991Z,11.13
2019-04-29T19:17:42.253Z,12.73
2019-04-29T19:20:18.340Z,11.43
2019-04-29T19:22:47.286Z,12.00
2019-04-29T19:25:17.647Z,12.40
2019-04-29T19:27:47.744Z,12.43
2019-04-29T19:30:21.018Z,13.20
2019-04-29T19:32:53.949Z,13.27
2019-04-29T19:35:22.447Z,12.53
2019-04-29T19:37:52.703Z,14.90
2019-04-29T19:40:23.333Z,14.10
2019-04-29T19:42:55.908Z,13.60
2019-04-29T19:47:59.604Z,14.50
2019-04-29T19:50:29.716Z,14.87
2019-04-29T19:53:00.725Z,15.80
2019-04-29T19:55:33.292Z,15.77
2019-04-29T19:58:06.588Z,15.67
2019-04-29T20:00:38.362Z,15.30
2019-04-29T20:03:20.565Z,16.17
2019-04-29T20:05:46.457Z,15.90
2019-04-29T20:08:37.439Z,17.23
2019-04-29T20:10:51.947Z,19.03
2019-04-29T20:13:20.286Z,18.70
2019-04-29T20:16:12.858Z,17.10
2019-04-29T20:19:02.231Z,19.10
2019-04-29T20:21:35.956Z,19.33
2019-04-29T20:24:09.452Z,19.30
2019-04-29T20:26:43.769Z,20.83
2019-04-29T20:29:12.339Z,19.60
2019-04-29T20:31:48.305Z,21.53
2019-04-29T20:34:20.320Z,22.63
2019-04-29T20:36:46.550Z,22.37
2019-04-29T20:39:23.051Z,19.73
2019-04-29T20:41:49.243Z,23.00
2019-04-29T20:44:19.640Z,21.17
2019-04-29T20:47:12.865Z,22.30
2019-04-29T20:49:26.243Z,21.40
2019-04-29T20:52:05.492Z,21.93
2019-04-29T20:54:37.324Z,22.40
2019-04-29T20:57:17.636Z,21.80
2019-04-29T20:59:42.108Z,22.23
2019-04-29T21:02:13.049Z,21.20
2019-04-29T21:04:46.278Z,23.40
2019-04-29T21:07:18.395Z,22.40
2019-04-29T21:09:48.040Z,23.63
2019-04-29T21:12:40.363Z,21.20
2019-04-29T21:15:16.498Z,23.43
2019-04-29T21:17:46.681Z,23.73
2019-04-29T21:20:16.829Z,22.90
2019-04-29T21:22:46.857Z,24.17
2019-04-29T21:25:17.036Z,23.00
2019-04-29T21:27:48.569Z,24.23
2019-04-29T21:30:20.096Z,24.10
2019-04-29T21:32:50.825Z,23.00
2019-04-29T21:35:35.336Z,22.23
2019-04-29T21:38:23.479Z,23.57
2019-04-29T21:40:58.873Z,24.47
2019-04-29T21:43:35.455Z,22.20
2019-04-29T21:46:05.788Z,22.27
2019-04-29T21:48:37.436Z,24.23
2019-04-29T21:51:11.233Z,22.20
2019-04-29T21:53:40.344Z,23.33
2019-04-29T21:56:09.457Z,22.83
2019-04-29T21:58:39.990Z,22.37
2019-04-29T22:01:10.598Z,21.97
2019-04-29T22:03:41.147Z,23.00
2019-04-29T22:06:16.230Z,22.73
2019-04-29T22:08:48.176Z,24.23
2019-04-29T22:11:18.900Z,24.73
2019-04-29T22:13:49.709Z,22.93
2019-04-29T22:16:19.953Z,22.27
2019-04-29T22:18:51.983Z,23.67
2019-04-29T22:21:23.346Z,24.60
2019-04-29T22:23:55.256Z,24.83
2019-04-29T22:26:26.806Z,24.57
2019-04-29T22:29:01.814Z,23.10
2019-04-29T22:31:33.818Z,25.37
2019-04-29T22:34:02.651Z,24.47
2019-04-29T22:36:33.281Z,25.80
2019-04-29T22:39:06.158Z,24.40
2019-04-29T22:41:58.280Z,24.43
2019-04-29T22:44:28.779Z,25.23
2019-04-29T22:46:58.853Z,26.20
2019-04-29T22:49:29.394Z,24.47
2019-04-29T22:51:59.510Z,24.73
2019-04-29T22:54:29.551Z,25.13
2019-04-29T22:56:59.748Z,25.43
2019-04-29T22:59:29.714Z,25.00
2019-04-29T23:02:00.034Z,25.13
2019-04-29T23:04:30.100Z,25.93
2019-04-29T23:07:00.039Z,24.90
2019-04-29T23:09:30.053Z,25.50
2019-04-29T23:12:00.466Z,25.53
2019-04-29T23:14:30.393Z,24.03
2019-04-29T23:17:00.702Z,25.20
2019-04-29T23:19:30.806Z,24.93
2019-04-29T23:22:22.107Z,23.50
2019-04-29T23:25:08.125Z,22.90
2019-04-29T23:27:38.193Z,23.13
2019-04-29T23:30:13.641Z,24.07
2019-04-29T23:32:44.275Z,22.30
2019-04-29T23:35:14.919Z,23.60
2019-04-29T23:37:45.736Z,25.27
2019-04-29T23:40:16.096Z,23.00
2019-04-29T23:42:47.949Z,24.63
2019-04-29T23:45:20.931Z,24.20
2019-04-29T23:47:50.462Z,25.30
2019-04-29T23:50:20.646Z,23.60
2019-04-29T23:52:51.962Z,24.80
2019-04-29T23:55:27.746Z,24.80
2019-04-29T23:58:09.962Z,22.40
